.
WxDataArchive / Data Records for 2006-10-06
2006-10-05 October 2006 2006-10-07

Data Records for Friday, 06 October 2006

Time	Temp	Chill	HIndex	Humid	Dewpt	 Wind 	HiWind	WindDir	Rain 	Barom 
-----	----	-----	------	-----	-----	------	------	-------	-----	----- 
00:00	45.2	45.2	45.2	76	38.1	0	1	112	0.00	30.323 
00:05	45.1	45.1	45.1	76	38.0	0	1	112	0.00	30.323 
00:10	44.9	44.9	44.9	76	37.8	0	2	112	0.00	30.323 
00:15	44.6	44.6	44.6	77	37.8	0	1	112	0.00	30.321 
00:20	44.5	44.5	44.5	77	37.7	0	2	112	0.00	30.321 
00:25	44.3	44.3	44.3	78	37.9	0	1	112	0.00	30.321 
00:30	44.2	44.2	44.2	78	37.8	0	0	---	0.00	30.328 
00:35	44.1	44.1	44.1	79	38.0	0	0	---	0.00	30.328 
00:40	43.8	43.8	43.8	79	37.7	0	1	112	0.00	30.328 
00:45	43.6	43.6	43.6	80	37.8	0	1	112	0.00	30.329 
00:50	43.5	43.5	43.5	80	37.7	0	1	112	0.00	30.329 
00:55	43.3	43.3	43.3	81	37.9	0	1	112	0.00	30.329 
01:00	43.2	43.2	43.2	81	37.8	0	2	112	0.00	30.327 
01:05	43.2	43.2	43.2	81	37.8	0	1	112	0.00	30.327 
01:10	43.2	43.2	43.2	81	37.8	0	3	112	0.00	30.327 
01:15	43.2	43.2	43.2	81	37.8	0	1	112	0.00	30.328 
01:20	43.3	43.3	43.3	80	37.6	0	4	135	0.00	30.328 
01:25	43.5	43.5	43.5	80	37.7	0	2	135	0.00	30.328 
01:30	43.6	43.6	43.6	79	37.5	0	4	112	0.00	30.328 
01:35	43.6	43.6	43.6	78	37.2	0	2	112	0.00	30.328 
01:40	43.5	43.5	43.5	79	37.4	0	1	112	0.00	30.328 
01:45	43.3	43.3	43.3	80	37.6	0	1	112	0.00	30.331 
01:50	43.3	43.3	43.3	80	37.6	0	1	112	0.00	30.331 
01:55	43.2	43.2	43.2	81	37.8	0	0	---	0.00	30.331 
02:00	43.1	43.1	43.1	81	37.7	0	0	---	0.00	30.327 
02:05	42.9	42.9	42.9	82	37.8	0	0	---	0.00	30.327 
02:10	42.8	42.8	42.8	82	37.7	0	1	112	0.00	30.327 
02:15	42.6	42.6	42.6	82	37.5	0	1	112	0.00	30.326 
02:20	42.5	42.5	42.5	82	37.4	0	0	---	0.00	30.326 
02:25	42.5	42.5	42.5	82	37.4	0	0	---	0.00	30.326 
02:30	42.5	42.5	42.5	83	37.7	0	1	112	0.00	30.330 
02:35	42.6	42.6	42.6	82	37.5	0	1	112	0.00	30.330 
02:40	42.6	42.6	42.6	81	37.2	0	0	---	0.00	30.330 
02:45	42.6	42.6	42.6	81	37.2	0	0	---	0.00	30.337 
02:50	42.5	42.5	42.5	81	37.1	0	0	---	0.00	30.337 
02:55	42.3	42.3	42.3	81	36.9	0	1	112	0.00	30.337 
03:00	42.3	42.3	42.3	81	36.9	0	2	135	0.00	30.339 
03:05	42.5	42.5	42.5	81	37.1	0	2	292	0.00	30.339 
03:10	42.5	42.5	42.5	81	37.1	0	0	---	0.00	30.339 
03:15	42.5	42.5	42.5	80	36.8	0	1	292	0.00	30.341 
03:20	42.6	42.6	42.6	79	36.6	0	1	292	0.00	30.341 
03:25	42.6	42.6	42.6	79	36.6	0	2	292	0.00	30.341 
03:30	42.8	42.8	42.8	78	36.4	0	2	292	0.00	30.342 
03:35	42.8	42.8	42.8	78	36.4	0	1	292	0.00	30.342 
03:40	42.9	42.9	42.9	78	36.5	0	1	315	0.00	30.342 
03:45	42.8	42.8	42.8	78	36.4	0	2	315	0.00	30.347 
03:50	42.8	42.8	42.8	78	36.4	0	2	292	0.00	30.347 
03:55	42.6	42.6	42.6	78	36.2	0	1	292	0.00	30.347 
04:00	42.6	42.6	42.6	78	36.2	0	2	292	0.00	30.353 
04:05	42.6	42.6	42.6	78	36.2	0	3	292	0.00	30.353 
04:10	42.5	42.5	42.5	79	36.5	0	1	292	0.00	30.353 
04:15	42.3	42.3	42.3	79	36.3	0	2	292	0.00	30.354 
04:20	42.1	42.1	42.1	80	36.4	0	2	292	0.00	30.354 
04:25	42.1	42.1	42.1	80	36.4	1	4	135	0.00	30.354 
04:30	42.1	42.1	42.1	79	36.1	0	3	112	0.00	30.343 
04:35	42.1	42.1	42.1	79	36.1	0	2	90	0.00	30.343 
04:40	42.2	42.2	42.2	79	36.2	0	3	112	0.00	30.343 
04:45	42.2	42.2	42.2	79	36.2	0	3	90	0.00	30.345 
04:50	41.9	41.9	41.9	80	36.2	0	1	90	0.00	30.345 
04:55	41.8	41.8	41.8	80	36.1	0	1	90	0.00	30.345 
05:00	41.8	41.8	41.8	80	36.1	0	1	90	0.00	30.356 
05:05	41.6	41.6	41.6	81	36.2	0	2	90	0.00	30.356 
05:10	41.5	41.5	41.5	81	36.1	0	1	158	0.00	30.356 
05:15	41.3	41.3	41.3	81	35.9	0	0	---	0.00	30.360 
05:20	41.2	41.2	41.2	82	36.1	0	2	158	0.00	30.360 
05:25	41.1	41.1	41.1	82	36.0	0	1	158	0.00	30.360 
05:30	41.1	41.1	41.1	82	36.0	0	1	158	0.00	30.363 
05:35	41.1	41.1	41.1	82	36.0	0	5	90	0.00	30.363 
05:40	40.9	40.9	40.9	82	35.8	0	2	90	0.00	30.363 
05:45	40.9	40.9	40.9	82	35.8	0	3	90	0.00	30.362 
05:50	41.1	41.1	41.1	81	35.7	1	5	68	0.00	30.362 
05:55	41.2	41.2	41.2	81	35.8	1	4	112	0.00	30.362 
06:00	41.3	41.3	41.3	81	35.9	1	2	45	0.00	30.361 
06:05	41.3	41.3	41.3	80	35.6	1	4	68	0.00	30.361 
06:10	41.3	41.3	41.3	80	35.6	1	4	68	0.00	30.361 
06:15	41.3	41.3	41.3	80	35.6	1	3	68	0.00	30.365 
06:20	41.3	41.3	41.3	80	35.6	2	5	90	0.00	30.365 
06:25	41.3	41.3	41.3	80	35.6	2	6	112	0.00	30.365 
06:30	41.2	41.2	41.2	80	35.5	1	4	68	0.00	30.368 
06:35	41.1	41.1	41.1	81	35.7	2	5	90	0.00	30.368 
06:40	41.1	41.1	41.1	81	35.7	2	6	45	0.00	30.368 
06:45	40.9	40.9	40.9	81	35.5	1	4	90	0.00	30.366 
06:50	40.8	40.8	40.8	81	35.4	1	4	90	0.00	30.366 
06:55	40.8	40.8	40.8	81	35.4	1	4	112	0.00	30.366 
07:00	40.8	40.8	40.8	81	35.4	1	2	45	0.00	30.375 
07:05	40.6	40.6	40.6	81	35.2	1	2	45	0.00	30.375 
07:10	40.6	40.6	40.6	81	35.2	1	2	90	0.00	30.375 
07:15	40.6	40.6	40.6	81	35.2	1	3	112	0.00	30.382 
07:20	40.8	40.8	40.8	81	35.4	1	6	68	0.00	30.382 
07:25	40.8	40.8	40.8	81	35.4	1	6	68	0.00	30.382 
07:30	40.8	40.8	40.8	81	35.4	1	3	90	0.00	30.386 
07:35	40.8	40.8	40.8	81	35.4	1	2	68	0.00	30.386 
07:40	40.6	40.6	40.6	81	35.2	1	5	22	0.00	30.386 
07:45	40.6	40.6	40.6	80	34.9	1	4	45	0.00	30.394 
07:50	40.8	40.8	40.8	81	35.4	1	4	112	0.00	30.394 
07:55	40.8	40.8	40.8	80	35.1	2	6	45	0.00	30.394 
08:00	40.9	40.9	40.9	80	35.2	1	4	112	0.00	30.392 
08:05	41.1	41.1	41.1	80	35.4	1	4	90	0.00	30.392 
08:10	41.3	41.3	41.3	79	35.3	1	5	90	0.00	30.392 
08:15	41.5	41.5	41.5	78	35.2	1	4	90	0.00	30.396 
08:20	41.6	41.6	41.6	78	35.3	1	2	68	0.00	30.396 
08:25	41.9	41.9	41.9	78	35.5	1	3	90	0.00	30.396 
08:30	42.2	42.2	42.2	77	35.5	1	3	90	0.00	30.399 
08:35	42.3	42.3	42.3	77	35.6	1	4	68	0.00	30.399 
08:40	42.6	42.6	42.6	77	35.9	1	3	90	0.00	30.399 
08:45	42.8	42.8	42.8	75	35.4	1	3	90	0.00	30.412 
08:50	43.2	43.2	43.2	73	35.1	2	4	112	0.00	30.412 
08:55	43.6	43.6	43.6	73	35.5	1	3	112	0.00	30.412 
09:00	44.1	44.1	44.1	72	35.7	2	9	90	0.00	30.413 
09:05	44.3	44.3	44.3	70	35.1	2	9	90	0.00	30.413 
09:10	44.5	44.5	44.5	69	35.0	3	6	45	0.00	30.413 
09:15	44.9	44.9	44.9	70	35.7	2	6	90	0.00	30.419 
09:20	45.2	45.2	45.2	69	35.6	2	7	90	0.00	30.419 
09:25	45.4	45.4	45.4	67	35.1	2	5	68	0.00	30.419 
09:30	45.7	45.7	45.7	68	35.8	3	7	90	0.00	30.426 
09:35	46.0	46.0	46.0	66	35.3	3	6	90	0.00	30.426 
09:40	46.2	46.2	46.2	65	35.1	3	6	90	0.00	30.426 
09:45	46.5	46.5	46.5	65	35.4	3	7	90	0.00	30.430 
09:50	46.8	46.8	46.8	63	34.9	3	9	90	0.00	30.430 
09:55	47.4	47.4	47.4	65	36.2	3	7	112	0.00	30.430 
10:00	48.0	48.0	48.0	63	36.0	3	7	112	0.00	30.435 
10:05	48.6	48.6	48.6	59	34.9	2	7	112	0.00	30.435 
10:10	49.2	49.2	49.2	59	35.5	3	9	90	0.00	30.435 
10:15	49.5	49.5	49.5	59	35.8	3	9	90	0.00	30.440 
10:20	50.1	50.1	50.1	56	35.0	3	6	90	0.00	30.440 
10:25	50.4	50.4	50.4	59	36.6	3	7	90	0.00	30.440 
10:30	51.1	51.1	51.1	58	36.8	2	4	90	0.00	30.437 
10:35	51.4	51.4	51.4	57	36.7	3	7	112	0.00	30.437 
10:40	51.4	51.4	51.4	56	36.2	4	10	112	0.00	30.437 
10:45	51.6	51.6	51.6	54	35.5	3	9	90	0.00	30.435 
10:50	51.9	51.9	51.9	53	35.3	3	7	90	0.00	30.435 
10:55	52.2	52.2	52.2	53	35.6	3	9	112	0.00	30.435 
11:00	52.6	52.6	52.6	53	36.0	1	3	112	0.00	30.434 
11:05	53.2	53.2	53.2	53	36.5	2	6	90	0.00	30.434 
11:10	53.2	53.2	53.2	53	36.5	2	6	90	0.00	30.434 
11:15	53.5	53.5	53.5	50	35.3	3	7	90	0.00	30.435 
11:20	53.8	53.8	53.8	50	35.6	3	7	90	0.00	30.435 
11:25	53.9	53.9	53.9	53	37.2	3	7	90	0.00	30.435 
11:30	54.4	54.4	54.4	50	36.2	3	6	90	0.00	30.431 
11:35	54.4	54.4	54.4	49	35.6	3	6	112	0.00	30.431 
11:40	54.8	54.8	54.8	52	37.5	2	4	135	0.00	30.431 
11:45	55.4	55.4	55.4	48	36.0	2	8	90	0.00	30.435 
11:50	55.4	55.4	55.4	46	35.0	3	7	112	0.00	30.435 
11:55	55.0	55.0	55.0	48	35.7	4	14	112	0.00	30.435 
12:00	55.4	55.4	55.4	47	35.5	2	4	90	0.00	30.431 
12:05	56.0	56.0	56.0	46	35.5	2	5	90	0.00	30.431 
12:10	55.7	55.7	55.7	47	35.8	4	11	90	0.00	30.431 
12:15	56.2	56.2	56.2	47	36.2	3	12	90	0.00	30.430 
12:20	56.0	56.0	56.0	46	35.5	4	10	90	0.00	30.430 
12:25	56.3	56.3	56.3	45	35.2	3	12	112	0.00	30.430 
12:30	56.3	56.3	56.3	48	36.9	3	6	90	0.00	30.426 
12:35	56.5	56.5	56.5	46	36.0	3	9	90	0.00	30.426 
12:40	56.6	56.6	56.6	48	37.1	3	7	90	0.00	30.426 
12:45	56.9	56.9	56.9	49	37.9	1	5	112	0.00	30.422 
12:50	56.9	56.9	56.9	50	38.5	3	11	112	0.00	30.422 
12:55	57.3	57.3	57.3	49	38.3	2	6	68	0.00	30.422 
13:00	57.6	57.6	57.6	43	35.3	3	7	112	0.00	30.422 
13:05	57.6	57.6	57.6	45	36.4	2	7	90	0.00	30.422 
13:10	57.8	57.8	57.8	48	38.2	2	6	90	0.00	30.422 
13:15	58.0	58.0	58.0	43	35.6	4	7	90	0.00	30.418 
13:20	57.8	57.8	57.8	45	36.6	2	6	90	0.00	30.418 
13:25	58.1	58.1	58.1	44	36.3	2	6	90	0.00	30.418 
13:30	58.0	58.0	58.0	43	35.6	4	10	90	0.00	30.418 
13:35	58.3	58.3	58.3	48	38.7	2	6	90	0.00	30.418 
13:40	58.4	58.4	58.4	44	36.6	3	10	112	0.00	30.418 
13:45	58.7	58.7	58.7	49	39.6	2	5	112	0.00	30.410 
13:50	59.2	59.2	59.2	50	40.6	1	4	112	0.00	30.410 
13:55	59.3	59.3	59.3	48	39.6	1	5	68	0.00	30.410 
14:00	59.5	59.5	59.5	44	37.6	2	6	90	0.00	30.405 
14:05	59.5	59.5	59.5	43	37.0	2	5	68	0.00	30.405 
14:10	59.6	59.6	59.6	45	38.2	1	7	112	0.00	30.405 
14:15	59.6	59.6	59.6	44	37.7	1	5	90	0.00	30.400 
14:20	59.8	59.8	59.8	45	38.4	2	7	90	0.00	30.400 
14:25	59.5	59.5	59.5	42	36.4	3	9	90	0.00	30.400 
14:30	59.5	59.5	59.5	41	35.8	2	7	90	0.00	30.390 
14:35	59.5	59.5	59.5	47	39.3	2	7	68	0.00	30.390 
14:40	59.5	59.5	59.5	39	34.5	3	9	90	0.00	30.390 
14:45	59.3	59.3	59.3	42	36.2	3	7	90	0.00	30.380 
14:50	59.3	59.3	59.3	46	38.5	2	7	112	0.00	30.380 
14:55	59.6	59.6	59.6	43	37.1	2	7	90	0.00	30.380 
15:00	59.6	59.6	59.6	43	37.1	2	4	90	0.00	30.373 
15:05	59.8	59.8	59.8	45	38.4	3	6	90	0.00	30.373 
15:10	59.6	59.6	59.6	40	35.3	2	6	112	0.00	30.373 
15:15	59.6	59.6	59.6	43	37.1	2	5	90	0.00	30.372 
15:20	59.9	59.9	59.9	41	36.1	3	7	90	0.00	30.372 
15:25	60.4	60.4	60.4	47	40.1	1	4	112	0.00	30.372 
15:30	60.5	60.5	60.5	43	37.9	2	7	112	0.00	30.371 
15:35	60.4	60.4	60.4	42	37.2	3	7	90	0.00	30.371 
15:40	60.4	60.4	60.4	43	37.8	3	10	90	0.00	30.371 
15:45	60.4	60.4	60.4	40	36.0	2	6	112	0.00	30.372 
15:50	60.5	60.5	60.5	40	36.1	2	6	90	0.00	30.372 
15:55	60.7	60.7	60.7	44	38.7	1	4	112	0.00	30.372 
16:00	60.9	60.9	60.9	41	37.0	3	7	90	0.00	30.364 
16:05	60.7	60.7	60.7	42	37.5	3	9	112	0.00	30.364 
16:10	60.9	60.9	60.9	46	40.0	2	5	112	0.00	30.364 
16:15	60.9	60.9	60.9	43	38.3	1	4	112	0.00	30.364 
16:20	60.9	60.9	60.9	44	38.8	2	5	90	0.00	30.364 
16:25	60.7	60.7	60.7	47	40.3	1	5	112	0.00	30.364 
16:30	60.7	60.7	60.7	45	39.2	1	4	90	0.00	30.361 
16:35	60.7	60.7	60.7	45	39.2	1	4	90	0.00	30.361 
16:40	60.7	60.7	60.7	48	40.9	1	4	112	0.00	30.361 
16:45	60.5	60.5	60.5	43	37.9	1	5	68	0.00	30.361 
16:50	60.4	60.4	60.4	43	37.8	2	6	112	0.00	30.361 
16:55	60.4	60.4	60.4	47	40.1	2	5	45	0.00	30.361 
17:00	60.4	60.4	60.4	45	39.0	1	4	90	0.00	30.364 
17:05	60.4	60.4	60.4	46	39.5	1	4	112	0.00	30.364 
17:10	60.4	60.4	60.4	48	40.6	1	3	68	0.00	30.364 
17:15	60.4	60.4	60.4	43	37.8	1	6	68	0.00	30.371 
17:20	60.1	60.1	60.1	42	36.9	2	6	112	0.00	30.371 
17:25	60.1	60.1	60.1	48	40.3	2	5	90	0.00	30.371 
17:30	60.1	60.1	60.1	43	37.5	2	10	90	0.00	30.368 
17:35	59.9	59.9	59.9	43	37.3	2	5	112	0.00	30.368 
17:40	59.9	59.9	59.9	46	39.1	1	4	112	0.00	30.368 
17:45	59.8	59.8	59.8	44	37.8	1	5	68	0.00	30.370 
17:50	59.8	59.8	59.8	45	38.4	3	9	90	0.00	30.370 
17:55	59.6	59.6	59.6	46	38.8	3	7	90	0.00	30.370 
18:00	59.5	59.5	59.5	47	39.3	2	5	112	0.00	30.365 
18:05	59.3	59.3	59.3	46	38.5	2	4	112	0.00	30.365 
18:10	59.2	59.2	59.2	45	37.9	3	5	112	0.00	30.365 
18:15	59.0	59.0	59.0	45	37.7	2	5	112	0.00	30.366 
18:20	58.9	58.9	58.9	47	38.7	2	7	90	0.00	30.366 
18:25	58.7	58.7	58.7	47	38.5	2	6	112	0.00	30.366 
18:30	58.6	58.6	58.6	48	39.0	3	6	90	0.00	30.364 
18:35	58.4	58.4	58.4	49	39.3	2	5	112	0.00	30.364 
18:40	58.1	58.1	58.1	50	39.6	2	5	90	0.00	30.364 
18:45	57.8	57.8	57.8	51	39.8	2	4	112	0.00	30.367 
18:50	57.3	57.3	57.3	51	39.3	2	6	112	0.00	30.367 
18:55	57.0	57.0	57.0	50	38.5	2	5	90	0.00	30.367 
19:00	56.7	56.7	56.7	51	38.8	3	5	90	0.00	30.365 
19:05	56.5	56.5	56.5	52	39.1	2	6	90	0.00	30.365 
19:10	56.2	56.2	56.2	52	38.8	2	4	90	0.00	30.365 
19:15	55.9	55.9	55.9	53	39.0	1	3	90	0.00	30.371 
19:20	55.4	55.4	55.4	54	39.0	1	3	90	0.00	30.371 
19:25	55.1	55.1	55.1	54	38.8	1	3	112	0.00	30.371 
19:30	54.7	54.7	54.7	56	39.3	1	2	112	0.00	30.376 
19:35	54.4	54.4	54.4	56	39.0	1	2	112	0.00	30.376 
19:40	54.1	54.1	54.1	57	39.2	1	2	90	0.00	30.376 
19:45	53.8	53.8	53.8	57	38.9	1	3	90	0.00	30.377 
19:50	53.5	53.5	53.5	58	39.1	1	3	90	0.00	30.377 
19:55	53.2	53.2	53.2	58	38.8	1	3	68	0.00	30.377 
20:00	52.9	52.9	52.9	58	38.5	1	3	68	0.00	30.379 
20:05	52.8	52.8	52.8	58	38.4	1	2	68	0.00	30.379 
20:10	52.6	52.6	52.6	59	38.7	1	2	68	0.00	30.379 
20:15	52.3	52.3	52.3	59	38.4	0	2	68	0.00	30.379 
20:20	52.0	52.0	52.0	60	38.5	1	2	68	0.00	30.379 
20:25	51.7	51.7	51.7	62	39.1	0	3	68	0.00	30.379 
20:30	51.4	51.4	51.4	62	38.8	0	0	---	0.00	30.387 
20:35	51.0	51.0	51.0	62	38.4	0	1	68	0.00	30.387 
20:40	50.5	50.5	50.5	63	38.4	0	2	68	0.00	30.387 
20:45	50.2	50.2	50.2	63	38.1	1	2	68	0.00	30.384 
20:50	49.9	49.9	49.9	63	37.8	0	2	68	0.00	30.384 
20:55	49.8	49.8	49.8	63	37.7	0	1	68	0.00	30.384 
21:00	49.8	49.8	49.8	63	37.7	0	1	68	0.00	30.391 
21:05	49.6	49.6	49.6	64	37.9	0	1	68	0.00	30.391 
21:10	49.4	49.4	49.4	64	37.7	0	2	68	0.00	30.391 
21:15	49.2	49.2	49.2	64	37.5	0	1	68	0.00	30.389 
21:20	49.2	49.2	49.2	65	37.9	0	3	68	0.00	30.389 
21:25	49.1	49.1	49.1	65	37.8	0	2	68	0.00	30.389 
21:30	48.8	48.8	48.8	66	38.0	0	2	68	0.00	30.392 
21:35	48.6	48.6	48.6	67	38.1	0	1	68	0.00	30.392 
21:40	48.3	48.3	48.3	67	37.9	0	2	68	0.00	30.392 
21:45	48.0	48.0	48.0	68	37.9	0	1	68	0.00	30.390 
21:50	47.9	47.9	47.9	69	38.2	0	1	68	0.00	30.390 
21:55	47.6	47.6	47.6	69	37.9	0	1	68	0.00	30.390 
22:00	47.4	47.4	47.4	69	37.7	1	2	68	0.00	30.382 
22:05	47.3	47.3	47.3	69	37.7	1	2	68	0.00	30.382 
22:10	47.3	47.3	47.3	70	38.0	1	2	68	0.00	30.382 
22:15	47.0	47.0	47.0	71	38.1	1	2	68	0.00	30.375 
22:20	46.7	46.7	46.7	72	38.2	1	2	68	0.00	30.375 
22:25	46.5	46.5	46.5	72	38.0	1	2	68	0.00	30.375 
22:30	46.4	46.4	46.4	73	38.2	0	1	68	0.00	30.376 
22:35	46.4	46.4	46.4	73	38.2	1	5	90	0.00	30.376 
22:40	46.5	46.5	46.5	73	38.3	1	4	68	0.00	30.376 
22:45	46.7	46.7	46.7	72	38.2	1	3	68	0.00	30.377 
22:50	46.8	46.8	46.8	72	38.3	0	2	68	0.00	30.377 
22:55	46.8	46.8	46.8	72	38.3	0	1	68	0.00	30.377 
23:00	46.7	46.7	46.7	73	38.5	0	1	68	0.00	30.378 
23:05	46.4	46.4	46.4	74	38.6	0	2	68	0.00	30.378 
23:10	46.2	46.2	46.2	75	38.7	0	2	68	0.00	30.378 
23:15	46.0	46.0	46.0	75	38.5	0	2	68	0.00	30.377 
23:20	45.8	45.8	45.8	75	38.3	1	2	68	0.00	30.377 
23:25	45.8	45.8	45.8	75	38.3	1	3	90	0.00	30.377 
23:30	45.8	45.8	45.8	75	38.3	1	2	112	0.00	30.377 
23:35	45.8	45.8	45.8	76	38.7	0	2	112	0.00	30.377 
23:40	45.5	45.5	45.5	76	38.4	0	0	---	0.00	30.377 
23:45	45.2	45.2	45.2	77	38.4	0	0	---	0.00	30.381 
23:50	44.8	44.8	44.8	78	38.4	0	0	---	0.00	30.381 
23:55	44.2	44.2	44.2	79	38.1	0	0	---	0.00	30.381 

CoCoRaHS
IN-AL-39
A2 Web Hosting
Creative Commons License
GoDaddy
Look for:

loaded 2017-12-11 14:03:46 • last modified 2010-11-18 10:43:29
Privacy PolicyDisclaimer
• wx.awcolley.com is powered by PmWiki v.2002016 •
• all content (unless otherwise noted) © 2017 A W Colley